sensor_id;sensor_type;location;lat;lon;timestamp;P1;durP1;ratioP1;P2;durP2;ratioP2
42384;SDS011;28042;43.986;22.860;2022-12-07T00:00:55;54.28;;;33.80;;
42384;SDS011;28042;43.986;22.860;2022-12-07T00:03:29;51.60;;;31.33;;
42384;SDS011;28042;43.986;22.860;2022-12-07T00:05:57;46.28;;;29.67;;
42384;SDS011;28042;43.986;22.860;2022-12-07T00:08:23;51.35;;;30.58;;
42384;SDS011;28042;43.986;22.860;2022-12-07T00:10:48;53.10;;;30.25;;
42384;SDS011;28042;43.986;22.860;2022-12-07T00:13:14;43.78;;;28.23;;
42384;SDS011;28042;43.986;22.860;2022-12-07T00:15:39;49.58;;;28.40;;
42384;SDS011;28042;43.986;22.860;2022-12-07T00:18:05;47.33;;;28.80;;
42384;SDS011;28042;43.986;22.860;2022-12-07T00:20:30;57.22;;;31.92;;
42384;SDS011;28042;43.986;22.860;2022-12-07T00:22:56;53.00;;;31.45;;
42384;SDS011;28042;43.986;22.860;2022-12-07T00:25:21;51.33;;;32.00;;
42384;SDS011;28042;43.986;22.860;2022-12-07T00:27:47;54.40;;;30.73;;
42384;SDS011;28042;43.986;22.860;2022-12-07T00:30:12;57.30;;;33.28;;
42384;SDS011;28042;43.986;22.860;2022-12-07T00:32:38;49.78;;;31.70;;
42384;SDS011;28042;43.986;22.860;2022-12-07T00:35:03;49.80;;;30.50;;
42384;SDS011;28042;43.986;22.860;2022-12-07T00:37:29;50.72;;;29.42;;
42384;SDS011;28042;43.986;22.860;2022-12-07T00:39:55;46.53;;;28.98;;
42384;SDS011;28042;43.986;22.860;2022-12-07T00:42:20;50.78;;;29.98;;
42384;SDS011;28042;43.986;22.860;2022-12-07T00:44:46;47.38;;;29.77;;
42384;SDS011;28042;43.986;22.860;2022-12-07T00:47:11;50.25;;;30.25;;
42384;SDS011;28042;43.986;22.860;2022-12-07T00:49:36;42.20;;;27.33;;
42384;SDS011;28042;43.986;22.860;2022-12-07T00:52:03;46.45;;;27.52;;
42384;SDS011;28042;43.986;22.860;2022-12-07T00:54:28;46.78;;;28.85;;
42384;SDS011;28042;43.986;22.860;2022-12-07T00:56:54;55.72;;;30.88;;
42384;SDS011;28042;43.986;22.860;2022-12-07T00:59:19;54.40;;;32.60;;
42384;SDS011;28042;43.986;22.860;2022-12-07T01:01:45;63.45;;;35.50;;
42384;SDS011;28042;43.986;22.860;2022-12-07T01:04:10;58.40;;;32.97;;
42384;SDS011;28042;43.986;22.860;2022-12-07T01:06:36;59.88;;;33.17;;
42384;SDS011;28042;43.986;22.860;2022-12-07T01:09:01;57.72;;;34.72;;
42384;SDS011;28042;43.986;22.860;2022-12-07T01:11:29;60.55;;;34.85;;
42384;SDS011;28042;43.986;22.860;2022-12-07T01:13:56;60.60;;;35.40;;
42384;SDS011;28042;43.986;22.860;2022-12-07T01:16:23;61.20;;;35.42;;
42384;SDS011;28042;43.986;22.860;2022-12-07T01:18:51;54.72;;;33.38;;
42384;SDS011;28042;43.986;22.860;2022-12-07T01:21:18;58.15;;;34.58;;
42384;SDS011;28042;43.986;22.860;2022-12-07T01:23:51;58.95;;;35.10;;
42384;SDS011;28042;43.986;22.860;2022-12-07T01:26:18;55.50;;;33.97;;
42384;SDS011;28042;43.986;22.860;2022-12-07T01:28:48;56.25;;;33.55;;
42384;SDS011;28042;43.986;22.860;2022-12-07T01:31:18;55.80;;;34.40;;
42384;SDS011;28042;43.986;22.860;2022-12-07T01:33:47;61.58;;;36.55;;
42384;SDS011;28042;43.986;22.860;2022-12-07T01:38:44;69.15;;;36.33;;
42384;SDS011;28042;43.986;22.860;2022-12-07T01:41:11;70.78;;;40.03;;
42384;SDS011;28042;43.986;22.860;2022-12-07T01:44:06;59.05;;;35.72;;
42384;SDS011;28042;43.986;22.860;2022-12-07T01:46:37;68.00;;;37.88;;
42384;SDS011;28042;43.986;22.860;2022-12-07T01:49:03;65.50;;;38.10;;
42384;SDS011;28042;43.986;22.860;2022-12-07T01:51:32;65.80;;;38.67;;
42384;SDS011;28042;43.986;22.860;2022-12-07T01:53:58;62.35;;;35.80;;
42384;SDS011;28042;43.986;22.860;2022-12-07T01:56:24;64.20;;;36.33;;
42384;SDS011;28042;43.986;22.860;2022-12-07T01:58:52;66.53;;;35.95;;
42384;SDS011;28042;43.986;22.860;2022-12-07T02:01:21;54.50;;;33.65;;
42384;SDS011;28042;43.986;22.860;2022-12-07T02:03:47;62.17;;;34.38;;
42384;SDS011;28042;43.986;22.860;2022-12-07T02:06:15;54.25;;;34.55;;
42384;SDS011;28042;43.986;22.860;2022-12-07T02:08:44;61.88;;;35.58;;
42384;SDS011;28042;43.986;22.860;2022-12-07T02:11:10;58.30;;;34.67;;
42384;SDS011;28042;43.986;22.860;2022-12-07T02:13:36;61.63;;;35.38;;
42384;SDS011;28042;43.986;22.860;2022-12-07T02:16:14;69.22;;;38.47;;
42384;SDS011;28042;43.986;22.860;2022-12-07T02:30:32;65.07;;;37.05;;
42384;SDS011;28042;43.986;22.860;2022-12-07T02:33:04;67.43;;;35.50;;
42384;SDS011;28042;43.986;22.860;2022-12-07T02:35:40;72.20;;;36.47;;
42384;SDS011;28042;43.986;22.860;2022-12-07T02:38:30;74.53;;;35.50;;
42384;SDS011;28042;43.986;22.860;2022-12-07T02:41:06;68.07;;;35.17;;
42384;SDS011;28042;43.986;22.860;2022-12-07T02:43:40;70.40;;;35.97;;
42384;SDS011;28042;43.986;22.860;2022-12-07T02:46:13;71.65;;;38.28;;
42384;SDS011;28042;43.986;22.860;2022-12-07T02:48:42;78.43;;;40.40;;
42384;SDS011;28042;43.986;22.860;2022-12-07T02:51:09;81.22;;;42.15;;
42384;SDS011;28042;43.986;22.860;2022-12-07T02:53:38;77.18;;;41.22;;
42384;SDS011;28042;43.986;22.860;2022-12-07T02:58:40;71.15;;;35.15;;
42384;SDS011;28042;43.986;22.860;2022-12-07T03:01:14;71.43;;;37.17;;
42384;SDS011;28042;43.986;22.860;2022-12-07T03:04:12;76.38;;;36.33;;
42384;SDS011;28042;43.986;22.860;2022-12-07T03:07:00;70.47;;;35.28;;
42384;SDS011;28042;43.986;22.860;2022-12-07T03:12:16;92.88;;;38.65;;
42384;SDS011;28042;43.986;22.860;2022-12-07T03:14:49;88.32;;;39.38;;
42384;SDS011;28042;43.986;22.860;2022-12-07T03:17:25;83.82;;;38.80;;
42384;SDS011;28042;43.986;22.860;2022-12-07T03:19:56;85.38;;;40.05;;
42384;SDS011;28042;43.986;22.860;2022-12-07T03:22:24;77.55;;;35.95;;
42384;SDS011;28042;43.986;22.860;2022-12-07T03:24:55;74.00;;;35.65;;
42384;SDS011;28042;43.986;22.860;2022-12-07T03:27:37;71.60;;;36.45;;
42384;SDS011;28042;43.986;22.860;2022-12-07T03:30:14;73.93;;;35.05;;
42384;SDS011;28042;43.986;22.860;2022-12-07T03:35:41;76.97;;;36.58;;
42384;SDS011;28042;43.986;22.860;2022-12-07T03:38:18;75.15;;;35.60;;
42384;SDS011;28042;43.986;22.860;2022-12-07T03:43:46;82.28;;;36.63;;
42384;SDS011;28042;43.986;22.860;2022-12-07T03:51:36;68.70;;;35.33;;
42384;SDS011;28042;43.986;22.860;2022-12-07T03:54:10;69.95;;;36.67;;
42384;SDS011;28042;43.986;22.860;2022-12-07T03:56:49;87.20;;;43.50;;
42384;SDS011;28042;43.986;22.860;2022-12-07T03:59:17;96.28;;;45.13;;
42384;SDS011;28042;43.986;22.860;2022-12-07T04:01:44;102.82;;;40.72;;
42384;SDS011;28042;43.986;22.860;2022-12-07T04:04:16;102.20;;;39.70;;
42384;SDS011;28042;43.986;22.860;2022-12-07T04:06:42;117.85;;;44.47;;
42384;SDS011;28042;43.986;22.860;2022-12-07T04:09:08;130.25;;;46.78;;
42384;SDS011;28042;43.986;22.860;2022-12-07T04:11:33;124.50;;;44.95;;
42384;SDS011;28042;43.986;22.860;2022-12-07T04:13:59;126.60;;;45.17;;
42384;SDS011;28042;43.986;22.860;2022-12-07T04:16:43;121.78;;;44.63;;
42384;SDS011;28042;43.986;22.860;2022-12-07T04:19:08;115.32;;;45.70;;
42384;SDS011;28042;43.986;22.860;2022-12-07T04:21:34;129.50;;;41.85;;
42384;SDS011;28042;43.986;22.860;2022-12-07T04:23:59;128.80;;;45.85;;
42384;SDS011;28042;43.986;22.860;2022-12-07T04:26:24;120.38;;;47.88;;
42384;SDS011;28042;43.986;22.860;2022-12-07T04:28:50;100.72;;;42.80;;
42384;SDS011;28042;43.986;22.860;2022-12-07T04:31:15;95.85;;;44.65;;
42384;SDS011;28042;43.986;22.860;2022-12-07T04:33:41;90.60;;;42.85;;
42384;SDS011;28042;43.986;22.860;2022-12-07T04:36:06;91.00;;;42.35;;
42384;SDS011;28042;43.986;22.860;2022-12-07T04:38:32;86.55;;;43.20;;
42384;SDS011;28042;43.986;22.860;2022-12-07T04:40:58;89.03;;;42.78;;
42384;SDS011;28042;43.986;22.860;2022-12-07T04:43:23;129.25;;;54.70;;
42384;SDS011;28042;43.986;22.860;2022-12-07T04:45:48;151.10;;;63.53;;
42384;SDS011;28042;43.986;22.860;2022-12-07T04:48:15;146.80;;;49.47;;
42384;SDS011;28042;43.986;22.860;2022-12-07T04:50:41;146.57;;;49.67;;
42384;SDS011;28042;43.986;22.860;2022-12-07T04:53:06;118.57;;;47.42;;
42384;SDS011;28042;43.986;22.860;2022-12-07T04:55:31;117.53;;;40.85;;
42384;SDS011;28042;43.986;22.860;2022-12-07T04:57:57;103.35;;;39.70;;
42384;SDS011;28042;43.986;22.860;2022-12-07T05:00:22;96.72;;;37.78;;
42384;SDS011;28042;43.986;22.860;2022-12-07T05:02:48;101.28;;;39.83;;
42384;SDS011;28042;43.986;22.860;2022-12-07T05:05:13;90.50;;;37.03;;
42384;SDS011;28042;43.986;22.860;2022-12-07T05:07:39;105.28;;;40.38;;
42384;SDS011;28042;43.986;22.860;2022-12-07T05:10:05;97.00;;;40.33;;
42384;SDS011;28042;43.986;22.860;2022-12-07T05:12:31;111.28;;;47.58;;
42384;SDS011;28042;43.986;22.860;2022-12-07T05:14:56;108.97;;;44.40;;
42384;SDS011;28042;43.986;22.860;2022-12-07T05:17:22;113.78;;;45.50;;
42384;SDS011;28042;43.986;22.860;2022-12-07T05:19:47;121.80;;;47.88;;
42384;SDS011;28042;43.986;22.860;2022-12-07T05:22:13;123.88;;;47.92;;
42384;SDS011;28042;43.986;22.860;2022-12-07T05:24:39;129.18;;;49.75;;
42384;SDS011;28042;43.986;22.860;2022-12-07T05:27:04;120.45;;;48.70;;
42384;SDS011;28042;43.986;22.860;2022-12-07T05:29:29;112.88;;;47.67;;
42384;SDS011;28042;43.986;22.860;2022-12-07T05:31:55;103.75;;;40.92;;
42384;SDS011;28042;43.986;22.860;2022-12-07T05:34:20;125.25;;;47.45;;
42384;SDS011;28042;43.986;22.860;2022-12-07T05:36:46;102.97;;;43.17;;
42384;SDS011;28042;43.986;22.860;2022-12-07T05:39:11;112.38;;;48.65;;
42384;SDS011;28042;43.986;22.860;2022-12-07T05:41:37;116.68;;;50.85;;
42384;SDS011;28042;43.986;22.860;2022-12-07T05:44:21;111.63;;;49.53;;
42384;SDS011;28042;43.986;22.860;2022-12-07T05:46:46;114.93;;;51.03;;
42384;SDS011;28042;43.986;22.860;2022-12-07T05:49:12;108.53;;;47.47;;
42384;SDS011;28042;43.986;22.860;2022-12-07T05:51:37;112.60;;;43.53;;
42384;SDS011;28042;43.986;22.860;2022-12-07T05:54:03;96.15;;;40.13;;
42384;SDS011;28042;43.986;22.860;2022-12-07T05:56:28;76.10;;;35.15;;
42384;SDS011;28042;43.986;22.860;2022-12-07T05:58:54;73.07;;;33.58;;
42384;SDS011;28042;43.986;22.860;2022-12-07T06:01:38;70.55;;;31.00;;
42384;SDS011;28042;43.986;22.860;2022-12-07T06:04:03;65.68;;;32.00;;
42384;SDS011;28042;43.986;22.860;2022-12-07T06:06:29;70.75;;;34.00;;
42384;SDS011;28042;43.986;22.860;2022-12-07T06:08:54;62.67;;;29.92;;
42384;SDS011;28042;43.986;22.860;2022-12-07T06:11:20;58.67;;;28.70;;
42384;SDS011;28042;43.986;22.860;2022-12-07T06:14:04;57.42;;;28.02;;
42384;SDS011;28042;43.986;22.860;2022-12-07T06:16:29;90.18;;;49.33;;
42384;SDS011;28042;43.986;22.860;2022-12-07T06:18:55;80.32;;;46.42;;
42384;SDS011;28042;43.986;22.860;2022-12-07T06:21:20;75.70;;;42.20;;
42384;SDS011;28042;43.986;22.860;2022-12-07T06:23:46;66.07;;;35.42;;
42384;SDS011;28042;43.986;22.860;2022-12-07T06:26:13;78.15;;;40.97;;
42384;SDS011;28042;43.986;22.860;2022-12-07T06:28:38;79.72;;;40.83;;
42384;SDS011;28042;43.986;22.860;2022-12-07T06:31:04;79.22;;;41.40;;
42384;SDS011;28042;43.986;22.860;2022-12-07T06:33:29;95.00;;;44.65;;
42384;SDS011;28042;43.986;22.860;2022-12-07T06:35:55;152.93;;;91.95;;
42384;SDS011;28042;43.986;22.860;2022-12-07T06:38:21;101.95;;;55.83;;
42384;SDS011;28042;43.986;22.860;2022-12-07T06:40:46;75.95;;;41.50;;
42384;SDS011;28042;43.986;22.860;2022-12-07T06:43:13;155.85;;;87.88;;
42384;SDS011;28042;43.986;22.860;2022-12-07T06:45:38;114.75;;;65.07;;
42384;SDS011;28042;43.986;22.860;2022-12-07T06:48:05;68.43;;;38.55;;
42384;SDS011;28042;43.986;22.860;2022-12-07T06:50:30;79.57;;;47.97;;
42384;SDS011;28042;43.986;22.860;2022-12-07T06:52:56;71.68;;;38.42;;
42384;SDS011;28042;43.986;22.860;2022-12-07T06:55:21;67.10;;;38.83;;
42384;SDS011;28042;43.986;22.860;2022-12-07T06:57:47;77.57;;;46.13;;
42384;SDS011;28042;43.986;22.860;2022-12-07T07:00:13;68.80;;;42.78;;
42384;SDS011;28042;43.986;22.860;2022-12-07T07:02:39;67.17;;;38.77;;
42384;SDS011;28042;43.986;22.860;2022-12-07T07:05:04;69.57;;;40.35;;
42384;SDS011;28042;43.986;22.860;2022-12-07T07:07:30;84.65;;;44.80;;
42384;SDS011;28042;43.986;22.860;2022-12-07T07:09:55;103.93;;;55.42;;
42384;SDS011;28042;43.986;22.860;2022-12-07T07:12:21;78.13;;;46.55;;
42384;SDS011;28042;43.986;22.860;2022-12-07T07:14:46;82.18;;;47.30;;
42384;SDS011;28042;43.986;22.860;2022-12-07T07:17:12;78.47;;;43.15;;
42384;SDS011;28042;43.986;22.860;2022-12-07T07:19:38;70.35;;;38.60;;
42384;SDS011;28042;43.986;22.860;2022-12-07T07:22:03;81.18;;;45.00;;
42384;SDS011;28042;43.986;22.860;2022-12-07T07:24:29;82.00;;;44.55;;
42384;SDS011;28042;43.986;22.860;2022-12-07T07:26:55;78.53;;;37.50;;
42384;SDS011;28042;43.986;22.860;2022-12-07T07:29:20;86.22;;;38.88;;
42384;SDS011;28042;43.986;22.860;2022-12-07T07:31:46;86.65;;;43.13;;
42384;SDS011;28042;43.986;22.860;2022-12-07T07:34:11;95.80;;;45.42;;
42384;SDS011;28042;43.986;22.860;2022-12-07T07:36:37;90.80;;;42.92;;
42384;SDS011;28042;43.986;22.860;2022-12-07T07:39:02;77.55;;;38.60;;
42384;SDS011;28042;43.986;22.860;2022-12-07T07:41:28;76.75;;;43.08;;
42384;SDS011;28042;43.986;22.860;2022-12-07T07:43:54;68.00;;;35.60;;
42384;SDS011;28042;43.986;22.860;2022-12-07T07:46:19;95.35;;;45.30;;
42384;SDS011;28042;43.986;22.860;2022-12-07T07:48:45;80.13;;;41.72;;
42384;SDS011;28042;43.986;22.860;2022-12-07T07:51:10;66.15;;;35.88;;
42384;SDS011;28042;43.986;22.860;2022-12-07T07:53:36;58.00;;;31.15;;
42384;SDS011;28042;43.986;22.860;2022-12-07T07:56:01;68.50;;;32.13;;
42384;SDS011;28042;43.986;22.860;2022-12-07T07:58:27;58.80;;;30.00;;
42384;SDS011;28042;43.986;22.860;2022-12-07T08:00:52;61.40;;;31.77;;
42384;SDS011;28042;43.986;22.860;2022-12-07T08:03:18;66.03;;;32.35;;
42384;SDS011;28042;43.986;22.860;2022-12-07T08:05:43;68.25;;;34.47;;
42384;SDS011;28042;43.986;22.860;2022-12-07T08:08:09;64.68;;;36.67;;
42384;SDS011;28042;43.986;22.860;2022-12-07T08:10:35;68.65;;;38.83;;
42384;SDS011;28042;43.986;22.860;2022-12-07T08:13:02;60.08;;;33.22;;
42384;SDS011;28042;43.986;22.860;2022-12-07T08:15:38;62.90;;;36.58;;
42384;SDS011;28042;43.986;22.860;2022-12-07T08:20:31;66.57;;;35.80;;
42384;SDS011;28042;43.986;22.860;2022-12-07T08:22:58;79.35;;;43.83;;
42384;SDS011;28042;43.986;22.860;2022-12-07T08:25:24;70.72;;;36.85;;
42384;SDS011;28042;43.986;22.860;2022-12-07T08:27:50;71.50;;;38.90;;
42384;SDS011;28042;43.986;22.860;2022-12-07T08:30:17;74.93;;;37.15;;
42384;SDS011;28042;43.986;22.860;2022-12-07T08:32:46;81.90;;;39.22;;
42384;SDS011;28042;43.986;22.860;2022-12-07T08:35:12;79.50;;;36.42;;
42384;SDS011;28042;43.986;22.860;2022-12-07T08:37:38;74.05;;;37.15;;
42384;SDS011;28042;43.986;22.860;2022-12-07T08:40:06;66.22;;;34.28;;
42384;SDS011;28042;43.986;22.860;2022-12-07T08:42:34;82.22;;;40.55;;
42384;SDS011;28042;43.986;22.860;2022-12-07T08:45:09;83.20;;;38.75;;
42384;SDS011;28042;43.986;22.860;2022-12-07T08:47:58;78.50;;;37.60;;
42384;SDS011;28042;43.986;22.860;2022-12-07T08:50:32;75.13;;;32.13;;
42384;SDS011;28042;43.986;22.860;2022-12-07T08:52:59;78.35;;;33.70;;
42384;SDS011;28042;43.986;22.860;2022-12-07T08:55:26;83.70;;;37.33;;
42384;SDS011;28042;43.986;22.860;2022-12-07T08:57:53;79.05;;;34.33;;
42384;SDS011;28042;43.986;22.860;2022-12-07T09:00:18;85.82;;;38.20;;
42384;SDS011;28042;43.986;22.860;2022-12-07T09:02:44;76.70;;;37.60;;
42384;SDS011;28042;43.986;22.860;2022-12-07T09:05:11;76.13;;;34.45;;
42384;SDS011;28042;43.986;22.860;2022-12-07T09:07:37;74.50;;;33.58;;
42384;SDS011;28042;43.986;22.860;2022-12-07T09:10:04;73.20;;;36.17;;
42384;SDS011;28042;43.986;22.860;2022-12-07T09:12:30;68.23;;;33.90;;
42384;SDS011;28042;43.986;22.860;2022-12-07T09:14:55;56.85;;;30.55;;
42384;SDS011;28042;43.986;22.860;2022-12-07T09:17:21;56.17;;;33.22;;
42384;SDS011;28042;43.986;22.860;2022-12-07T09:19:47;54.75;;;31.40;;
42384;SDS011;28042;43.986;22.860;2022-12-07T09:22:12;68.68;;;43.80;;
42384;SDS011;28042;43.986;22.860;2022-12-07T09:24:38;59.05;;;36.10;;
42384;SDS011;28042;43.986;22.860;2022-12-07T09:27:03;54.97;;;34.03;;
42384;SDS011;28042;43.986;22.860;2022-12-07T09:29:29;46.60;;;29.25;;
42384;SDS011;28042;43.986;22.860;2022-12-07T09:31:54;54.05;;;37.40;;
42384;SDS011;28042;43.986;22.860;2022-12-07T09:34:20;41.33;;;24.90;;
42384;SDS011;28042;43.986;22.860;2022-12-07T09:36:46;32.20;;;20.83;;
42384;SDS011;28042;43.986;22.860;2022-12-07T09:39:11;56.03;;;38.08;;
42384;SDS011;28042;43.986;22.860;2022-12-07T09:41:38;28.50;;;19.27;;
42384;SDS011;28042;43.986;22.860;2022-12-07T09:44:07;30.75;;;20.48;;
42384;SDS011;28042;43.986;22.860;2022-12-07T09:46:38;30.92;;;19.80;;
42384;SDS011;28042;43.986;22.860;2022-12-07T09:49:05;25.70;;;18.15;;
42384;SDS011;28042;43.986;22.860;2022-12-07T09:51:41;29.50;;;18.48;;
42384;SDS011;28042;43.986;22.860;2022-12-07T09:54:07;32.90;;;21.38;;
42384;SDS011;28042;43.986;22.860;2022-12-07T09:56:37;23.92;;;16.05;;
42384;SDS011;28042;43.986;22.860;2022-12-07T09:59:02;28.65;;;19.00;;
42384;SDS011;28042;43.986;22.860;2022-12-07T10:01:29;27.38;;;19.08;;
42384;SDS011;28042;43.986;22.860;2022-12-07T10:06:38;29.90;;;21.50;;
42384;SDS011;28042;43.986;22.860;2022-12-07T10:09:10;25.40;;;17.98;;
42384;SDS011;28042;43.986;22.860;2022-12-07T10:11:57;22.67;;;15.38;;
42384;SDS011;28042;43.986;22.860;2022-12-07T10:14:35;23.83;;;16.08;;
42384;SDS011;28042;43.986;22.860;2022-12-07T10:17:22;25.60;;;16.42;;
42384;SDS011;28042;43.986;22.860;2022-12-07T10:22:55;28.98;;;19.73;;
42384;SDS011;28042;43.986;22.860;2022-12-07T10:25:30;28.40;;;18.48;;
42384;SDS011;28042;43.986;22.860;2022-12-07T10:27:58;28.83;;;19.30;;
42384;SDS011;28042;43.986;22.860;2022-12-07T10:30:26;32.05;;;24.08;;
42384;SDS011;28042;43.986;22.860;2022-12-07T10:32:52;33.40;;;19.33;;
42384;SDS011;28042;43.986;22.860;2022-12-07T10:35:19;26.83;;;19.02;;
42384;SDS011;28042;43.986;22.860;2022-12-07T10:37:56;31.45;;;19.80;;
42384;SDS011;28042;43.986;22.860;2022-12-07T10:40:32;35.60;;;27.45;;
42384;SDS011;28042;43.986;22.860;2022-12-07T10:45:31;25.50;;;17.33;;
42384;SDS011;28042;43.986;22.860;2022-12-07T10:48:04;19.85;;;14.38;;
42384;SDS011;28042;43.986;22.860;2022-12-07T11:07:12;24.48;;;17.00;;
42384;SDS011;28042;43.986;22.860;2022-12-07T11:17:53;18.20;;;13.40;;
42384;SDS011;28042;43.986;22.860;2022-12-07T11:31:07;16.25;;;12.35;;
42384;SDS011;28042;43.986;22.860;2022-12-07T11:33:46;18.55;;;14.57;;
42384;SDS011;28042;43.986;22.860;2022-12-07T11:39:04;18.38;;;13.25;;
42384;SDS011;28042;43.986;22.860;2022-12-07T11:41:41;18.60;;;15.52;;
42384;SDS011;28042;43.986;22.860;2022-12-07T11:46:41;17.13;;;13.40;;
42384;SDS011;28042;43.986;22.860;2022-12-07T11:51:47;20.17;;;15.23;;
42384;SDS011;28042;43.986;22.860;2022-12-07T11:54:27;25.27;;;18.80;;
42384;SDS011;28042;43.986;22.860;2022-12-07T11:56:59;25.08;;;17.55;;
42384;SDS011;28042;43.986;22.860;2022-12-07T11:59:36;30.65;;;21.55;;
42384;SDS011;28042;43.986;22.860;2022-12-07T12:07:48;34.97;;;23.30;;
42384;SDS011;28042;43.986;22.860;2022-12-07T12:10:26;25.35;;;18.15;;
42384;SDS011;28042;43.986;22.860;2022-12-07T12:18:53;30.13;;;19.50;;
42384;SDS011;28042;43.986;22.860;2022-12-07T12:21:32;24.60;;;16.05;;
42384;SDS011;28042;43.986;22.860;2022-12-07T12:23:59;29.00;;;18.70;;
42384;SDS011;28042;43.986;22.860;2022-12-07T12:26:38;24.08;;;17.13;;
42384;SDS011;28042;43.986;22.860;2022-12-07T12:29:21;27.48;;;17.60;;
42384;SDS011;28042;43.986;22.860;2022-12-07T12:32:16;20.75;;;14.73;;
42384;SDS011;28042;43.986;22.860;2022-12-07T12:35:17;24.13;;;16.38;;
42384;SDS011;28042;43.986;22.860;2022-12-07T12:37:52;21.77;;;15.70;;
42384;SDS011;28042;43.986;22.860;2022-12-07T12:42:56;19.30;;;14.57;;
42384;SDS011;28042;43.986;22.860;2022-12-07T12:45:30;31.25;;;22.42;;
42384;SDS011;28042;43.986;22.860;2022-12-07T12:47:57;31.90;;;21.77;;
42384;SDS011;28042;43.986;22.860;2022-12-07T12:50:49;28.77;;;17.90;;
42384;SDS011;28042;43.986;22.860;2022-12-07T12:53:53;34.58;;;19.67;;
42384;SDS011;28042;43.986;22.860;2022-12-07T12:56:39;32.10;;;18.55;;
42384;SDS011;28042;43.986;22.860;2022-12-07T12:59:30;32.15;;;19.73;;
42384;SDS011;28042;43.986;22.860;2022-12-07T13:10:26;33.72;;;22.73;;
42384;SDS011;28042;43.986;22.860;2022-12-07T13:15:42;37.67;;;24.60;;
42384;SDS011;28042;43.986;22.860;2022-12-07T13:23:56;25.20;;;18.63;;
42384;SDS011;28042;43.986;22.860;2022-12-07T13:31:44;43.40;;;26.58;;
42384;SDS011;28042;43.986;22.860;2022-12-07T13:34:27;26.58;;;19.40;;
42384;SDS011;28042;43.986;22.860;2022-12-07T13:39:51;38.03;;;22.50;;
42384;SDS011;28042;43.986;22.860;2022-12-07T13:42:31;30.10;;;21.75;;
42384;SDS011;28042;43.986;22.860;2022-12-07T13:44:59;23.17;;;18.15;;
42384;SDS011;28042;43.986;22.860;2022-12-07T13:47:35;47.90;;;28.23;;
42384;SDS011;28042;43.986;22.860;2022-12-07T13:50:26;36.13;;;25.13;;
42384;SDS011;28042;43.986;22.860;2022-12-07T13:53:00;32.33;;;22.08;;
42384;SDS011;28042;43.986;22.860;2022-12-07T13:55:27;41.95;;;28.38;;
42384;SDS011;28042;43.986;22.860;2022-12-07T13:57:54;50.97;;;32.35;;
42384;SDS011;28042;43.986;22.860;2022-12-07T14:00:21;35.60;;;24.70;;
42384;SDS011;28042;43.986;22.860;2022-12-07T14:03:03;30.50;;;22.50;;
42384;SDS011;28042;43.986;22.860;2022-12-07T14:05:47;30.48;;;21.98;;
42384;SDS011;28042;43.986;22.860;2022-12-07T14:08:32;35.92;;;23.00;;
42384;SDS011;28042;43.986;22.860;2022-12-07T14:10:58;30.33;;;22.10;;
42384;SDS011;28042;43.986;22.860;2022-12-07T14:16:01;43.60;;;32.05;;
42384;SDS011;28042;43.986;22.860;2022-12-07T14:18:29;64.22;;;36.80;;
42384;SDS011;28042;43.986;22.860;2022-12-07T14:24:07;63.55;;;38.95;;
42384;SDS011;28042;43.986;22.860;2022-12-07T14:26:40;51.47;;;36.38;;
42384;SDS011;28042;43.986;22.860;2022-12-07T14:29:22;59.75;;;39.75;;
42384;SDS011;28042;43.986;22.860;2022-12-07T14:31:51;57.53;;;38.40;;
42384;SDS011;28042;43.986;22.860;2022-12-07T14:34:19;55.20;;;37.05;;
42384;SDS011;28042;43.986;22.860;2022-12-07T14:36:45;49.45;;;34.03;;
42384;SDS011;28042;43.986;22.860;2022-12-07T14:39:10;62.70;;;44.20;;
42384;SDS011;28042;43.986;22.860;2022-12-07T14:41:36;78.20;;;55.55;;
42384;SDS011;28042;43.986;22.860;2022-12-07T14:44:18;80.82;;;53.95;;
42384;SDS011;28042;43.986;22.860;2022-12-07T14:46:46;65.28;;;45.88;;
42384;SDS011;28042;43.986;22.860;2022-12-07T14:49:12;67.88;;;49.80;;
42384;SDS011;28042;43.986;22.860;2022-12-07T14:51:37;68.47;;;50.50;;
42384;SDS011;28042;43.986;22.860;2022-12-07T14:54:06;53.92;;;41.20;;
42384;SDS011;28042;43.986;22.860;2022-12-07T14:56:36;43.85;;;34.20;;
42384;SDS011;28042;43.986;22.860;2022-12-07T14:59:01;47.40;;;34.45;;
42384;SDS011;28042;43.986;22.860;2022-12-07T15:01:27;36.50;;;27.98;;
42384;SDS011;28042;43.986;22.860;2022-12-07T15:03:53;35.50;;;25.90;;
42384;SDS011;28042;43.986;22.860;2022-12-07T15:06:18;41.80;;;27.55;;
42384;SDS011;28042;43.986;22.860;2022-12-07T15:08:44;52.15;;;36.30;;
42384;SDS011;28042;43.986;22.860;2022-12-07T15:11:11;71.47;;;52.00;;
42384;SDS011;28042;43.986;22.860;2022-12-07T15:13:40;109.45;;;73.75;;
42384;SDS011;28042;43.986;22.860;2022-12-07T15:16:24;113.93;;;67.65;;
42384;SDS011;28042;43.986;22.860;2022-12-07T15:18:50;98.93;;;56.33;;
42384;SDS011;28042;43.986;22.860;2022-12-07T15:21:16;110.30;;;65.45;;
42384;SDS011;28042;43.986;22.860;2022-12-07T15:23:42;124.60;;;72.70;;
42384;SDS011;28042;43.986;22.860;2022-12-07T15:26:09;121.72;;;70.32;;
42384;SDS011;28042;43.986;22.860;2022-12-07T15:28:35;137.10;;;72.88;;
42384;SDS011;28042;43.986;22.860;2022-12-07T15:31:00;126.97;;;68.78;;
42384;SDS011;28042;43.986;22.860;2022-12-07T15:33:26;174.48;;;104.85;;
42384;SDS011;28042;43.986;22.860;2022-12-07T15:35:51;134.68;;;85.47;;
42384;SDS011;28042;43.986;22.860;2022-12-07T15:38:17;105.82;;;65.60;;
42384;SDS011;28042;43.986;22.860;2022-12-07T15:40:42;86.40;;;57.55;;
42384;SDS011;28042;43.986;22.860;2022-12-07T15:43:12;86.43;;;58.38;;
42384;SDS011;28042;43.986;22.860;2022-12-07T15:46:06;74.40;;;47.42;;
42384;SDS011;28042;43.986;22.860;2022-12-07T15:48:32;65.22;;;43.22;;
42384;SDS011;28042;43.986;22.860;2022-12-07T15:51:02;50.53;;;36.03;;
42384;SDS011;28042;43.986;22.860;2022-12-07T15:53:32;45.00;;;31.38;;
42384;SDS011;28042;43.986;22.860;2022-12-07T15:55:58;45.53;;;32.45;;
42384;SDS011;28042;43.986;22.860;2022-12-07T15:58:24;41.08;;;27.08;;
42384;SDS011;28042;43.986;22.860;2022-12-07T16:00:49;29.05;;;21.92;;
42384;SDS011;28042;43.986;22.860;2022-12-07T16:03:15;27.90;;;21.05;;
42384;SDS011;28042;43.986;22.860;2022-12-07T16:05:40;24.85;;;18.98;;
42384;SDS011;28042;43.986;22.860;2022-12-07T16:08:05;23.77;;;18.48;;
42384;SDS011;28042;43.986;22.860;2022-12-07T16:10:31;22.38;;;16.48;;
42384;SDS011;28042;43.986;22.860;2022-12-07T16:12:57;22.85;;;17.13;;
42384;SDS011;28042;43.986;22.860;2022-12-07T16:15:22;23.95;;;17.42;;
42384;SDS011;28042;43.986;22.860;2022-12-07T16:17:49;22.48;;;16.67;;
42384;SDS011;28042;43.986;22.860;2022-12-07T16:20:15;24.15;;;18.50;;
42384;SDS011;28042;43.986;22.860;2022-12-07T16:22:41;24.25;;;18.25;;
42384;SDS011;28042;43.986;22.860;2022-12-07T16:25:06;26.42;;;19.95;;
42384;SDS011;28042;43.986;22.860;2022-12-07T16:27:32;28.55;;;20.42;;